Time;durP1;ratioP1;P1;durP2;ratioP2;P2;SDS_P1;SDS_P2;PMS_P1;PMS_P2;Temp;Humidity;BMP_temperature;BMP_pressure;BME280_temperature;BME280_humidity;BME280_pressure;Samples;Min_cycle;Max_cycle;Signal;HPM_P1;HPM_P2
2024/01/27 00:00:52;;;;;;;;;46.00;38.50;;;;;5.88;100.00;99836.47;6273908;20;2861736;-47
2024/01/27 00:03:22;;;;;;;;;39.33;33.67;;;;;5.90;100.00;99839.94;6276255;20;3620047;-46
2024/01/27 00:05:52;;;;;;;;;51.33;39.00;;;;;6.01;100.00;99839.53;6307622;20;3607624;-43
2024/01/27 00:08:22;;;;;;;;;45.67;38.67;;;;;6.04;100.00;99834.06;6302086;20;2858715;-45
2024/01/27 00:10:51;;;;;;;;;40.67;36.33;;;;;6.00;100.00;99827.13;6307981;20;2854554;-46
2024/01/27 00:13:21;;;;;;;;;43.67;36.00;;;;;6.15;100.00;99841.63;6304692;20;2846138;-45
2024/01/27 00:15:51;;;;;;;;;40.50;36.00;;;;;6.11;100.00;99853.38;6305348;20;2841995;-46
2024/01/27 00:18:20;;;;;;;;;46.50;36.50;;;;;6.06;100.00;99852.69;6273366;20;2869109;-44
2024/01/27 00:20:50;;;;;;;;;38.00;31.67;;;;;6.26;100.00;99865.19;6275176;20;3621165;-45
2024/01/27 00:23:19;;;;;;;;;34.00;28.00;;;;;6.38;100.00;99876.22;6303979;20;2849283;-46
2024/01/27 00:25:48;;;;;;;;;36.00;28.33;;;;;6.42;100.00;99878.75;6274893;20;3614835;-46
2024/01/27 00:28:17;;;;;;;;;29.50;26.00;;;;;6.68;100.00;99878.50;6304822;20;2846178;-44
2024/01/27 00:30:46;;;;;;;;;27.00;26.00;;;;;6.93;100.00;99885.50;6273876;20;2856548;-44
2024/01/27 00:33:14;;;;;;;;;22.00;21.00;;;;;6.86;100.00;99878.69;6272758;20;2500295;-45
2024/01/27 00:35:43;;;;;;;;;26.50;18.00;;;;;7.03;100.00;99884.16;6276771;20;2844056;-47
2024/01/27 00:38:11;;;;;;;;;17.00;17.00;;;;;7.08;100.00;99887.47;6276040;20;3547151;-44
2024/01/27 00:40:41;;;;;;;;;23.67;20.67;;;;;7.07;100.00;99891.09;6276172;20;3579448;-45
2024/01/27 00:43:09;;;;;;;;;17.33;15.67;;;;;7.20;100.00;99884.25;6305769;20;3533707;-45
2024/01/27 00:45:38;;;;;;;;;20.67;19.33;;;;;7.23;100.00;99892.13;6273352;20;3569106;-45
2024/01/27 00:48:07;;;;;;;;;17.67;16.33;;;;;7.16;100.00;99901.38;6276388;20;3551293;-45
2024/01/27 00:50:36;;;;;;;;;20.67;18.00;;;;;7.28;100.00;99917.78;6273399;20;3563795;-45
2024/01/27 00:53:05;;;;;;;;;20.67;16.33;;;;;7.24;100.00;99914.34;6275475;20;3553554;-46
2024/01/27 00:55:33;;;;;;;;;16.00;16.00;;;;;7.28;100.00;99923.97;6275318;20;2823194;-46
2024/01/27 00:58:01;;;;;;;;;17.00;16.00;;;;;7.28;100.00;99923.97;6276879;20;2813831;-45
2024/01/27 01:00:29;;;;;;;;;19.50;15.00;;;;;7.25;100.00;99927.66;6277519;20;2817990;-44
2024/01/27 01:02:57;;;;;;;;;17.00;15.00;;;;;7.18;100.00;99920.84;6276798;20;2830490;-48
2024/01/27 01:05:24;;;;;;;;;15.00;15.00;;;;;7.14;100.00;99911.25;6278103;20;2813820;-47
2024/01/27 01:07:52;;;;;;;;;14.50;11.50;;;;;7.12;100.00;99909.56;6275272;20;2790909;-46
2024/01/27 01:10:21;;;;;;;;;19.67;14.00;;;;;6.94;100.00;99903.22;6272159;20;3546117;-45
2024/01/27 01:12:49;;;;;;;;;15.00;12.50;;;;;7.00;100.00;99905.63;6309075;20;2787834;-45
2024/01/27 01:15:16;;;;;;;;;11.50;10.00;;;;;6.97;100.00;99895.09;6276581;20;2789887;-45
2024/01/27 01:17:45;;;;;;;;;7.00;7.00;;;;;7.01;100.00;99902.03;6296459;20;1812851;-48
2024/01/27 01:20:13;;;;;;;;;10.50;9.50;;;;;6.90;100.00;99912.28;6305803;20;2783827;-48
2024/01/27 01:22:42;;;;;;;;;13.00;10.00;;;;;6.97;100.00;99925.31;6273834;20;2794055;-47
2024/01/27 01:25:10;;;;;;;;;5.00;4.00;;;;;6.99;100.00;99926.13;6326198;20;1816565;-46
2024/01/27 01:27:40;;;;;;;;;12.20;10.40;;;;;6.89;100.00;99929.25;6331459;20;2787839;-48
2024/01/27 01:30:09;;;;;;;;;9.67;7.67;;;;;6.97;100.00;99927.13;6273869;20;3467983;-46
2024/01/27 01:32:37;;;;;;;;;7.50;7.50;;;;;6.95;100.00;99939.66;6292920;20;1808864;-48
2024/01/27 01:35:06;;;;;;;;;9.75;8.00;;;;;6.88;100.00;99940.88;6325635;20;1818037;-47
2024/01/27 01:37:34;;;;;;;;;8.00;7.00;;;;;6.97;100.00;99953.81;6307307;20;2732803;-49
2024/01/27 01:40:03;;;;;;;;;8.50;8.50;;;;;6.88;100.00;99938.19;6322757;20;1814963;-45
2024/01/27 01:42:33;;;;;;;;;5.00;5.00;;;;;6.79;100.00;99945.66;6323786;20;1819159;-46
2024/01/27 01:45:01;;;;;;;;;10.00;7.00;;;;;6.72;100.00;99930.84;6307852;20;2748259;-45
2024/01/27 01:47:30;;;;;;;;;7.75;6.25;;;;;6.74;100.00;99922.75;6295855;20;1813999;-45
2024/01/27 01:49:58;;;;;;;;;6.50;5.50;;;;;6.76;100.00;99934.22;6325831;20;1819229;-48
2024/01/27 01:52:26;;;;;;;;;7.00;6.00;;;;;6.66;100.00;99936.44;6309545;20;2748220;-48
2024/01/27 01:54:55;;;;;;;;;4.00;4.00;;;;;6.68;100.00;99947.88;6294805;20;1824397;-45
2024/01/27 01:57:23;;;;;;;;;6.00;6.00;;;;;6.72;100.00;99949.50;6311265;20;2754465;-48
2024/01/27 01:59:52;;;;;;;;;4.75;4.00;;;;;6.69;100.00;99949.66;6298260;20;1811915;-47
2024/01/27 02:02:21;;;;;;;;;4.50;4.50;;;;;6.67;100.00;99950.63;6328654;20;1823462;-47
2024/01/27 02:04:48;;;;;;;;;2.67;2.00;;;;;6.63;100.00;99957.03;6312812;20;3438893;-46
2024/01/27 02:07:16;;;;;;;;;4.00;2.00;;;;;6.63;99.75;99939.19;6315386;20;2742994;-49
2024/01/27 02:09:45;;;;;;;;;2.50;2.25;;;;;6.68;99.05;99947.88;6329692;20;1823073;-47
2024/01/27 02:12:13;;;;;;;;;2.50;2.50;;;;;6.73;97.58;99953.91;6326120;20;1818120;-49
2024/01/27 02:14:44;;;;;;;;;3.00;3.00;;;;;6.58;98.52;99957.19;6349727;20;2583632;-46
2024/01/27 02:17:12;;;;;;;;;4.00;3.00;;;;;6.57;98.77;99955.47;6279719;20;3470085;-49
2024/01/27 02:19:40;;;;;;;;;3.75;3.00;;;;;6.63;98.21;99965.88;6298725;20;1804556;-46
2024/01/27 02:22:09;;;;;;;;;2.00;2.00;;;;;6.53;98.17;99970.75;6330444;20;1811831;-48
2024/01/27 02:24:38;;;;;;;;;3.25;2.50;;;;;6.52;98.08;99973.47;6327874;20;1822358;-47
2024/01/27 02:27:06;;;;;;;;;2.00;2.00;;;;;6.56;97.13;99967.09;6330899;20;1813917;-43
2024/01/27 02:29:35;;;;;;;;;3.00;3.00;;;;;6.65;97.28;99974.69;6327916;20;1804501;-46
2024/01/27 02:32:03;;;;;;;;;1.00;1.00;;;;;6.58;96.13;99982.09;6311619;20;3429489;-45
2024/01/27 02:34:31;;;;;;;;;3.25;2.00;;;;;6.53;96.26;99985.84;6321498;20;1820264;-48
2024/01/27 02:36:59;;;;;;;;;14.00;14.00;;;;;6.43;96.36;99987.19;6306138;20;2496237;-46
2024/01/27 02:39:27;;;;;;;;;1.67;0.00;;;;;6.41;96.39;99991.69;6282657;20;3431567;-45
2024/01/27 02:41:55;;;;;;;;;3.00;3.00;;;;;6.47;96.35;100007.44;6309336;20;3459719;-45
2024/01/27 02:44:24;;;;;;;;;3.00;2.00;;;;;6.50;94.93;100010.00;6325865;20;1818104;-46
2024/01/27 02:46:52;;;;;;;;;1.00;1.00;;;;;6.40;95.34;100013.94;6327269;20;1813716;-46
2024/01/27 02:49:20;;;;;;;;;2.00;2.00;;;;;6.45;94.34;100025.31;6308417;20;3469111;-45
2024/01/27 02:51:49;;;;;;;;;5.67;5.67;;;;;6.40;95.00;100022.84;6277010;20;3455473;-45
2024/01/27 02:54:17;;;;;;;;;3.00;3.00;;;;;6.51;93.62;100014.41;6306317;20;2753406;-48
2024/01/27 02:56:45;;;;;;;;;3.00;2.25;;;;;6.56;93.45;100026.63;6293652;20;1822372;-48
2024/01/27 02:59:14;;;;;;;;;2.25;2.00;;;;;6.32;93.68;100041.81;6326502;20;1805504;-47
2024/01/27 03:01:42;;;;;;;;;2.00;2.00;;;;;6.31;94.25;100045.38;6308874;20;2752403;-45
2024/01/27 03:04:10;;;;;;;;;2.75;1.25;;;;;6.37;93.03;100060.28;6295432;20;1807697;-46
2024/01/27 03:06:39;;;;;;;;;1.75;1.75;;;;;6.31;92.94;100072.03;6330177;20;1811731;-46
2024/01/27 03:09:08;;;;;;;;;3.00;3.00;;;;;6.28;92.75;100072.16;6333104;20;1808655;-45
2024/01/27 03:11:36;;;;;;;;;1.00;1.00;;;;;6.23;93.07;100062.59;6330136;20;1805597;-48
2024/01/27 03:14:05;;;;;;;;;1.00;1.00;;;;;6.25;92.63;100074.09;6328115;20;1807644;-46
2024/01/27 03:16:34;;;;;;;;;1.00;1.00;;;;;6.12;92.74;100084.34;6326912;20;1815972;-46
2024/01/27 03:19:02;;;;;;;;;4.00;4.00;;;;;6.20;92.06;100087.59;6328339;20;1820693;-46
2024/01/27 03:21:31;;;;;;;;;2.00;2.00;;;;;6.12;91.87;100093.19;6325687;20;1816551;-47
2024/01/27 03:23:59;;;;;;;;;2.67;1.00;;;;;6.14;91.76;100090.50;6310817;20;3434610;-44
2024/01/27 03:26:27;;;;;;;;;1.33;1.33;;;;;6.04;92.17;100103.28;6309750;20;3429469;-45
2024/01/27 03:28:55;;;;;;;;;2.00;1.00;;;;;6.02;92.56;100106.91;6312518;20;3434635;-46
2024/01/27 03:31:22;;;;;;;;;2.00;2.00;;;;;5.95;92.09;100111.63;6308469;20;3437914;-44
2024/01/27 03:33:50;;;;;;;;;1.00;1.00;;;;;5.99;92.12;100118.56;6309514;20;3442227;-45
2024/01/27 03:36:21;;;;;;;;;3.00;1.00;;;;;6.08;90.17;100125.34;6316643;20;2727367;-48
2024/01/27 03:38:50;;;;;;;;;2.00;2.00;;;;;6.05;90.25;100117.47;6298980;20;1815950;-47
2024/01/27 03:41:18;;;;;;;;;3.25;1.50;;;;;5.93;90.13;100119.66;6327364;20;1811774;-46
2024/01/27 03:43:47;;;;;;;;;2.25;2.00;;;;;5.82;90.93;100127.13;6327222;20;1824392;-48
2024/01/27 03:46:16;;;;;;;;;1.50;1.50;;;;;5.88;90.43;100132.25;6328106;20;1821831;-45
2024/01/27 03:48:44;;;;;;;;;1.25;1.00;;;;;5.98;89.29;100134.59;6328055;20;1808797;-45
2024/01/27 03:51:12;;;;;;;;;1.00;1.00;;;;;5.85;89.01;100140.34;6309700;20;3445103;-47
2024/01/27 03:53:40;;;;;;;;;0.00;0.00;;;;;5.87;88.35;100153.59;6278687;20;3441967;-45
2024/01/27 03:56:13;;;;;;;;;4.25;2.75;;;;;5.71;88.15;100154.16;6326902;20;1824363;-46
2024/01/27 03:58:40;;;;;;;;;1.33;1.00;;;;;5.70;88.26;100148.84;6309775;20;3439873;-47
2024/01/27 04:01:08;;;;;;;;;0.67;0.67;;;;;5.75;87.80;100168.22;6306346;20;3436789;-48
2024/01/27 04:03:36;;;;;;;;;1.67;1.00;;;;;5.76;87.21;100169.94;6307589;20;3445063;-49
2024/01/27 04:06:04;;;;;;;;;0.00;0.00;;;;;5.82;85.44;100180.44;6279296;20;3440885;-48
2024/01/27 04:08:32;;;;;;;;;2.00;2.00;;;;;5.60;86.21;100190.03;6274602;20;3450325;-49
2024/01/27 04:10:59;;;;;;;;;0.00;0.00;;;;;5.70;85.48;100191.47;6309087;20;3432588;-44
2024/01/27 04:13:27;;;;;;;;;13.00;6.00;;;;;5.64;85.23;100199.69;6306065;20;2773186;-46
2024/01/27 04:15:59;;;;;;;;;2.00;2.00;;;;;5.53;86.25;100205.38;6297149;20;1825449;-46
2024/01/27 04:18:27;;;;;;;;;0.67;0.33;;;;;5.49;85.47;100204.59;6308407;20;3435696;-45
2024/01/27 04:20:54;;;;;;;;;1.33;0.00;;;;;5.60;84.60;100211.34;6310805;20;3437754;-44
2024/01/27 04:23:23;;;;;;;;;0.00;0.00;;;;;5.49;84.66;100219.69;6326254;20;1811718;-45
2024/01/27 04:25:51;;;;;;;;;0.33;0.00;;;;;5.51;83.88;100233.84;6311253;20;3435704;-45
2024/01/27 04:28:19;;;;;;;;;4.25;4.25;;;;;5.50;83.54;100248.97;6322623;20;1817211;-46
2024/01/27 04:30:47;;;;;;;;;1.00;1.00;;;;;5.48;83.54;100256.13;6307223;20;3439927;-45
2024/01/27 04:33:15;;;;;;;;;0.00;0.00;;;;;5.47;83.42;100262.34;6322921;20;1807702;-46
2024/01/27 04:35:43;;;;;;;;;1.00;1.00;;;;;5.53;83.52;100279.06;6312014;20;3435700;-47
2024/01/27 04:38:11;;;;;;;;;1.00;1.00;;;;;5.50;82.85;100294.22;6309651;20;3441956;-45
2024/01/27 04:40:39;;;;;;;;;0.00;0.00;;;;;5.38;83.93;100309.72;6279118;20;3443004;-46
2024/01/27 04:43:07;;;;;;;;;3.00;0.00;;;;;5.49;82.81;100308.44;6307878;20;3435667;-46
2024/01/27 04:45:35;;;;;;;;;2.00;2.00;;;;;5.68;81.60;100313.19;6308834;20;3450247;-47
2024/01/27 04:48:03;;;;;;;;;2.00;1.00;;;;;5.53;82.80;100316.34;6278208;20;3444130;-47
2024/01/27 04:50:31;;;;;;;;;1.33;1.00;;;;;5.52;82.49;100322.59;6307571;20;3439877;-45
2024/01/27 04:52:59;;;;;;;;;0.00;0.00;;;;;5.63;81.93;100320.47;6307799;20;3436768;-47
2024/01/27 04:55:27;;;;;;;;;1.33;1.00;;;;;5.53;83.15;100316.34;6306122;20;3435679;-46
2024/01/27 04:57:55;;;;;;;;;1.67;0.67;;;;;5.52;83.38;100326.13;6307588;20;3441931;-45
2024/01/27 05:00:27;;;;;;;;;0.25;0.25;;;;;5.46;82.29;100327.19;6317081;20;2727364;-46
2024/01/27 05:02:57;;;;;;;;;0.00;0.00;;;;;5.32;83.43;100326.75;6278751;20;3437783;-46
2024/01/27 05:05:25;;;;;;;;;1.00;1.00;;;;;5.38;83.41;100337.19;6309033;20;3437779;-46
2024/01/27 05:07:53;;;;;;;;;2.00;2.00;;;;;5.55;80.87;100339.34;6326207;20;1818971;-46
2024/01/27 05:10:22;;;;;;;;;12.00;10.25;;;;;5.42;81.44;100341.50;6323817;20;1828527;-46
2024/01/27 05:12:51;;;;;;;;;7.00;5.25;;;;;5.38;81.28;100345.19;6322257;20;1816992;-45
2024/01/27 05:15:18;;;;;;;;;1.00;1.00;;;;;5.34;80.74;100354.16;6308186;20;3432543;-44
2024/01/27 05:17:46;;;;;;;;;2.33;0.33;;;;;5.36;79.43;100360.34;6309630;20;3435659;-44
2024/01/27 05:20:14;;;;;;;;;1.00;0.00;;;;;5.26;80.06;100361.50;6308394;20;3435705;-48
2024/01/27 05:22:42;;;;;;;;;2.33;0.67;;;;;5.21;78.88;100356.34;6314917;20;3439828;-46
2024/01/27 05:25:11;;;;;;;;;0.00;0.00;;;;;5.32;78.01;100361.34;6312213;20;3435695;-45
2024/01/27 05:27:39;;;;;;;;;2.00;1.00;;;;;5.15;78.65;100361.81;6311526;20;3435717;-45
2024/01/27 05:30:08;;;;;;;;;0.00;0.00;;;;;5.14;78.36;100367.22;6313011;20;3437881;-48
2024/01/27 05:32:36;;;;;;;;;0.00;0.00;;;;;5.31;75.82;100375.56;6314226;20;3431526;-49
2024/01/27 05:35:05;;;;;;;;;0.00;0.00;;;;;5.12;77.53;100374.34;6313320;20;3441932;-47
2024/01/27 05:37:33;;;;;;;;;2.00;0.00;;;;;5.03;77.66;100375.50;6312455;20;3437838;-49
2024/01/27 05:40:00;;;;;;;;;1.00;0.00;;;;;5.22;76.35;100386.50;6313041;20;3445260;-46
2024/01/27 05:42:28;;;;;;;;;1.33;0.00;;;;;5.08;77.40;100378.88;6315157;20;3438861;-45
2024/01/27 05:44:57;;;;;;;;;0.00;0.00;;;;;5.18;76.21;100375.03;6327527;20;1809760;-46
2024/01/27 05:47:24;;;;;;;;;0.00;0.00;;;;;5.11;77.22;100401.88;6315331;20;3435668;-46
2024/01/27 05:49:53;;;;;;;;;0.50;0.50;;;;;5.23;76.99;100397.09;6331017;20;1809679;-47
2024/01/27 05:52:21;;;;;;;;;2.00;0.00;;;;;5.17;77.54;100399.06;6309338;20;3434663;-46
2024/01/27 05:54:52;;;;;;;;;2.00;0.00;;;;;5.10;77.10;100402.81;6312126;20;3428412;-48
2024/01/27 05:57:21;;;;;;;;;1.00;1.00;;;;;5.14;77.18;100418.66;6329378;20;1815876;-45
2024/01/27 05:59:49;;;;;;;;;2.00;0.67;;;;;5.06;78.06;100424.19;6312454;20;3446058;-45
2024/01/27 06:02:17;;;;;;;;;0.00;0.00;;;;;5.06;77.77;100416.19;6308858;20;3439851;-47
2024/01/27 06:04:46;;;;;;;;;0.00;0.00;;;;;4.92;78.62;100418.34;6311541;20;3437797;-45
2024/01/27 06:07:15;;;;;;;;;1.25;0.25;;;;;4.99;78.43;100422.59;6328432;20;1812871;-47
2024/01/27 06:09:43;;;;;;;;;0.00;0.00;;;;;5.12;77.72;100427.59;6312868;20;3435720;-44
2024/01/27 06:12:11;;;;;;;;;1.50;1.25;;;;;4.92;79.33;100434.31;6328537;20;1809472;-50
2024/01/27 06:14:40;;;;;;;;;2.00;1.00;;;;;4.99;78.65;100438.56;6309928;20;3437754;-48
2024/01/27 06:17:09;;;;;;;;;6.25;4.50;;;;;5.07;77.99;100441.03;6328246;20;1825359;-49
2024/01/27 06:19:38;;;;;;;;;9.75;6.25;;;;;5.15;77.79;100448.81;6323593;20;1816979;-47
2024/01/27 06:22:07;;;;;;;;;6.25;2.25;;;;;4.86;78.07;100447.78;6327327;20;1822274;-48
2024/01/27 06:24:41;;;;;;;;;4.50;2.00;;;;;4.84;78.59;100455.81;6321042;20;1818027;-45
2024/01/27 06:27:09;;;;;;;;;6.00;3.00;;;;;4.94;78.91;100460.88;6307741;20;2750262;-46
2024/01/27 06:29:39;;;;;;;;;4.00;3.00;;;;;5.09;77.62;100459.63;6327431;20;1822269;-47
2024/01/27 06:32:07;;;;;;;;;0.00;0.00;;;;;5.05;77.34;100465.03;6304644;20;3442037;-48
2024/01/27 06:34:39;;;;;;;;;1.00;1.00;;;;;5.02;78.29;100469.53;6310531;20;3437719;-48
2024/01/27 06:37:08;;;;;;;;;2.50;1.00;;;;;5.03;77.49;100471.31;6330505;20;1816960;-44
2024/01/27 06:39:37;;;;;;;;;1.00;1.00;;;;;5.16;76.23;100474.50;6330180;20;1811223;-47
2024/01/27 06:42:04;;;;;;;;;1.00;1.00;;;;;5.09;76.96;100470.25;6312197;20;3439833;-45
2024/01/27 06:44:32;;;;;;;;;1.00;1.00;;;;;5.17;76.27;100479.78;6280197;20;3435708;-44
2024/01/27 06:47:00;;;;;;;;;1.67;1.67;;;;;5.21;75.90;100476.13;6310789;20;3442959;-45
2024/01/27 06:49:28;;;;;;;;;8.00;7.00;;;;;5.27;76.04;100477.75;6327732;20;1827598;-49
2024/01/27 06:51:56;;;;;;;;;11.50;5.00;;;;;5.05;77.25;100481.00;6307879;20;2756551;-50
2024/01/27 06:54:24;;;;;;;;;2.67;2.00;;;;;5.53;74.09;100487.69;6279621;20;3438504;-47
2024/01/27 06:56:52;;;;;;;;;7.00;7.00;;;;;5.69;72.35;100490.81;6311682;20;2744671;-47
2024/01/27 06:59:20;;;;;;;;;4.00;4.00;;;;;5.90;71.28;100490.19;6308694;20;3461907;-47
2024/01/27 07:01:48;;;;;;;;;1.00;1.00;;;;;5.68;72.02;100494.38;6281846;20;3435040;-47
2024/01/27 07:04:17;;;;;;;;;2.00;2.00;;;;;7.02;67.04;100508.00;6324424;20;1823310;-48
2024/01/27 07:06:46;;;;;;;;;2.00;2.00;;;;;8.25;59.83;100513.38;6329373;20;1811764;-47
2024/01/27 07:09:15;;;;;;;;;1.00;1.00;;;;;9.25;56.88;100514.72;6330117;20;1809707;-46
2024/01/27 07:11:43;;;;;;;;;3.50;2.00;;;;;10.08;52.51;100525.28;6308659;20;2749022;-45
2024/01/27 07:14:10;;;;;;;;;2.00;2.00;;;;;10.24;50.16;100512.94;6278599;20;2748328;-45
2024/01/27 07:16:38;;;;;;;;;2.50;2.50;;;;;9.82;50.79;100513.06;6279095;20;2733702;-45
2024/01/27 07:19:07;;;;;;;;;1.00;1.00;;;;;10.03;51.36;100500.50;6327432;20;1809798;-45
2024/01/27 07:21:34;;;;;;;;;6.50;5.00;;;;;10.76;49.16;100512.25;6312523;20;2752477;-51
2024/01/27 07:24:03;;;;;;;;;8.00;4.00;;;;;10.04;49.99;100503.13;6277013;20;2750315;-48
2024/01/27 07:26:34;;;;;;;;;7.14;4.57;;;;;11.24;47.62;100507.19;6319851;20;1806659;-45
2024/01/27 07:29:02;;;;;;;;;6.00;4.00;;;;;11.36;47.38;100498.50;6312247;20;2754515;-48
2024/01/27 07:31:31;;;;;;;;;5.00;2.80;;;;;9.67;49.45;100501.25;6302917;20;2756561;-47
2024/01/27 07:33:59;;;;;;;;;7.00;6.00;;;;;10.13;49.30;100507.16;6310674;20;2744047;-48
2024/01/27 07:36:32;;;;;;;;;6.00;4.00;;;;;6.45;59.34;100490.31;6278083;20;2744156;-46
2024/01/27 07:39:01;;;;;;;;;17.67;12.00;;;;;5.98;61.93;100489.09;6309266;20;3537785;-45
2024/01/27 07:41:29;;;;;;;;;8.50;5.00;;;;;6.10;63.74;100494.06;6310369;20;2749193;-44
2024/01/27 07:44:11;;;;;;;;;9.00;7.00;;;;;6.00;63.32;100487.25;6275161;20;2756769;-46
2024/01/27 07:46:41;;;;;;;;;2.00;2.00;;;;;6.06;63.94;100484.44;6295572;20;1809175;-45
2024/01/27 07:49:11;;;;;;;;;5.00;3.00;;;;;6.23;63.14;100492.75;6310820;20;2746130;-44
2024/01/27 07:51:40;;;;;;;;;1.00;0.00;;;;;6.11;63.02;100488.69;6326828;20;1816246;-46
2024/01/27 07:54:08;;;;;;;;;6.50;2.50;;;;;6.22;63.70;100484.81;6324530;20;1818100;-44
2024/01/27 07:56:38;;;;;;;;;3.00;3.00;;;;;6.59;62.71;100471.19;6326876;20;1825460;-46
2024/01/27 07:59:13;;;;;;;;;4.75;3.75;;;;;6.56;61.36;100492.63;6324599;20;1825391;-45
2024/01/27 08:01:42;;;;;;;;;3.00;2.00;;;;;6.33;62.19;100486.22;6325452;20;1819114;-45
2024/01/27 08:04:10;;;;;;;;;4.50;3.00;;;;;6.54;59.77;100490.00;6305170;20;2752449;-45
2024/01/27 08:06:51;;;;;;;;;6.25;4.00;;;;;6.79;61.00;100502.53;6296799;20;1821221;-46
2024/01/27 08:09:19;;;;;;;;;3.00;3.00;;;;;6.54;59.54;100497.16;6309456;20;2737808;-46
2024/01/27 08:11:52;;;;;;;;;7.00;5.00;;;;;6.73;58.83;100495.63;6274900;20;2739883;-47
2024/01/27 08:14:21;;;;;;;;;4.00;4.00;;;;;6.77;57.78;100491.94;6309342;20;2747162;-49
2024/01/27 08:16:49;;;;;;;;;8.50;3.00;;;;;6.62;57.14;100508.44;6325097;20;1820976;-52
2024/01/27 08:19:20;;;;;;;;;8.80;6.60;;;;;6.74;57.79;100516.06;6334508;20;2750261;-47
2024/01/27 08:21:49;;;;;;;;;6.25;4.00;;;;;6.67;57.69;100516.31;6324036;20;1818685;-48
2024/01/27 08:24:19;;;;;;;;;17.40;14.20;;;;;6.81;57.95;100516.72;6331062;20;2808674;-46
2024/01/27 08:26:48;;;;;;;;;5.00;5.00;;;;;6.76;57.30;100532.88;6276398;20;2756554;-45
2024/01/27 08:29:15;;;;;;;;;3.00;3.00;;;;;6.82;57.20;100523.81;6277930;20;2744075;-46
2024/01/27 08:31:44;;;;;;;;;1.25;1.25;;;;;6.93;57.88;100524.34;6281514;20;1822268;-47
2024/01/27 08:34:15;;;;;;;;;4.50;3.00;;;;;6.99;59.47;100528.59;6301340;20;2749260;-48
2024/01/27 08:36:43;;;;;;;;;1.00;1.00;;;;;7.00;57.13;100519.66;6293050;20;1814966;-47
2024/01/27 08:39:13;;;;;;;;;1.50;1.50;;;;;7.23;57.40;100526.88;6328607;20;1813377;-45
2024/01/27 08:41:40;;;;;;;;;8.00;4.00;;;;;7.19;57.54;100535.94;6311851;20;2748362;-49
2024/01/27 08:44:10;;;;;;;;;10.00;9.40;;;;;7.40;57.16;100539.69;6331322;20;2769068;-45
2024/01/27 08:46:39;;;;;;;;;2.25;2.25;;;;;7.23;56.84;100533.09;6295562;20;1804556;-46
2024/01/27 08:49:07;;;;;;;;;3.00;1.50;;;;;7.13;55.88;100544.16;6330275;20;1809450;-46
2024/01/27 08:51:35;;;;;;;;;4.00;2.00;;;;;7.32;55.83;100552.41;6309648;20;2754599;-44
2024/01/27 08:54:03;;;;;;;;;11.00;6.50;;;;;7.59;57.02;100546.13;6277551;20;2749472;-48
2024/01/27 08:56:31;;;;;;;;;24.50;19.50;;;;;7.78;58.26;100556.16;6281920;20;2827429;-45
2024/01/27 08:58:59;;;;;;;;;4.00;4.00;;;;;7.77;57.93;100554.41;6283877;20;2754359;-47
2024/01/27 09:01:27;;;;;;;;;1.00;1.00;;;;;7.61;56.94;100571.00;6299673;20;1801100;-47
2024/01/27 09:03:56;;;;;;;;;4.00;2.25;;;;;7.33;57.68;100578.22;6332020;20;1817045;-45
2024/01/27 09:06:24;;;;;;;;;4.67;3.00;;;;;7.39;57.84;100581.53;6336627;20;1814960;-46
2024/01/27 09:08:58;;;;;;;;;2.75;2.00;;;;;7.70;57.06;100576.00;6328686;20;1810616;-47
2024/01/27 09:11:30;;;;;;;;;3.00;3.00;;;;;7.59;55.50;100571.97;6317238;20;2746255;-46
2024/01/27 09:13:58;;;;;;;;;1.00;1.00;;;;;7.56;56.95;100572.94;6297677;20;1809182;-49
2024/01/27 09:16:27;;;;;;;;;3.00;2.00;;;;;7.66;55.96;100590.41;6332735;20;1803433;-46
2024/01/27 09:18:56;;;;;;;;;16.20;11.20;;;;;7.56;56.09;100588.97;6338318;20;2807605;-47
2024/01/27 09:21:28;;;;;;;;;8.50;3.00;;;;;7.48;55.39;100591.03;6287777;20;2747193;-46
2024/01/27 09:23:57;;;;;;;;;6.00;4.00;;;;;7.45;56.67;100575.09;6328166;20;1822359;-47
2024/01/27 09:26:25;;;;;;;;;3.00;2.00;;;;;7.35;56.16;100542.50;6316115;20;2750751;-48
2024/01/27 09:28:56;;;;;;;;;5.17;3.83;;;;;7.43;57.55;100555.59;6325027;20;1804632;-47
2024/01/27 09:31:25;;;;;;;;;9.50;4.25;;;;;7.67;56.26;100546.72;6302393;20;1821045;-46
2024/01/27 09:33:54;;;;;;;;;13.00;9.00;;;;;7.70;55.89;100537.72;6312569;20;2764862;-46
2024/01/27 09:36:24;;;;;;;;;6.50;4.00;;;;;7.57;54.24;100537.25;6299786;20;1824362;-45
2024/01/27 09:38:54;;;;;;;;;2.25;2.25;;;;;7.63;54.79;100537.03;6329602;20;1814954;-48
2024/01/27 09:41:22;;;;;;;;;4.00;4.00;;;;;7.93;55.44;100528.84;6315980;20;2752369;-48
2024/01/27 09:43:54;;;;;;;;;3.75;3.75;;;;;8.03;54.93;100534.72;6299311;20;1822344;-48
2024/01/27 09:46:23;;;;;;;;;6.00;4.50;;;;;7.75;54.41;100519.69;6330006;20;1821263;-45
2024/01/27 09:48:53;;;;;;;;;2.75;2.50;;;;;7.86;53.58;100530.00;6329523;20;1801545;-46
2024/01/27 09:51:22;;;;;;;;;3.50;1.00;;;;;7.81;52.88;100515.94;6330685;20;1811902;-45
2024/01/27 09:53:52;;;;;;;;;1.33;1.00;;;;;7.60;54.03;100523.78;6339136;20;1811854;-48
2024/01/27 09:56:21;;;;;;;;;2.00;2.00;;;;;7.76;54.59;100540.16;6331335;20;1810823;-46
2024/01/27 09:58:55;;;;;;;;;4.00;3.00;;;;;7.61;54.40;100538.03;6314092;20;2756528;-47
2024/01/27 10:01:25;;;;;;;;;2.00;2.00;;;;;7.82;54.50;100537.28;6295467;20;1811818;-46
2024/01/27 10:03:55;;;;;;;;;7.00;6.00;;;;;7.92;54.27;100553.81;6313575;20;2746263;-48
2024/01/27 10:06:25;;;;;;;;;7.25;3.50;;;;;7.84;53.99;100561.25;6328187;20;1811845;-46
2024/01/27 10:08:56;;;;;;;;;1.25;1.25;;;;;7.68;54.44;100553.78;6331302;20;1810920;-48
2024/01/27 10:11:24;;;;;;;;;7.50;6.50;;;;;7.97;54.19;100567.91;6312929;20;2733618;-47
2024/01/27 10:14:02;;;;;;;;;3.00;3.00;;;;;7.83;54.22;100576.44;6283248;20;2733826;-45
2024/01/27 10:16:44;;;;;;;;;6.00;3.00;;;;;7.87;54.34;100583.44;6315739;20;2747172;-47
2024/01/27 10:19:17;;;;;;;;;3.50;3.50;;;;;8.39;54.11;100580.63;6282430;20;2741987;-45
2024/01/27 10:21:46;;;;;;;;;20.00;17.00;;;;;8.39;53.11;100591.34;6280592;20;2824304;-46
2024/01/27 10:24:16;;;;;;;;;4.25;4.25;;;;;8.24;52.80;100576.72;6300026;20;1821206;-46
2024/01/27 10:26:44;;;;;;;;;8.00;8.00;;;;;8.46;52.97;100566.09;6314866;20;2739909;-46
2024/01/27 10:29:12;;;;;;;;;15.50;12.00;;;;;8.47;52.10;100573.19;6311000;20;2808811;-46
2024/01/27 10:31:39;;;;;;;;;8.00;8.00;;;;;8.42;51.86;100577.84;6283735;20;2734688;-46
2024/01/27 10:34:14;;;;;;;;;2.00;2.00;;;;;8.23;51.34;100558.03;6328562;20;1820212;-47
2024/01/27 10:36:44;;;;;;;;;13.00;10.00;;;;;8.27;51.65;100570.38;6306642;20;2788921;-46
2024/01/27 10:39:24;;;;;;;;;4.75;3.00;;;;;8.27;52.50;100559.69;6298172;20;1812935;-46
2024/01/27 10:41:52;;;;;;;;;6.00;3.00;;;;;8.36;52.06;100559.31;6313658;20;2734688;-45
2024/01/27 10:44:21;;;;;;;;;14.33;14.33;;;;;8.67;51.29;100568.88;6275183;20;2792045;-44
2024/01/27 10:46:51;;;;;;;;;16.50;12.50;;;;;8.67;50.15;100575.09;6313905;20;2803454;-45
2024/01/27 10:49:20;;;;;;;;;5.00;5.00;;;;;8.40;50.19;100576.16;6278560;20;2743010;-48
2024/01/27 10:52:03;;;;;;;;;4.00;4.00;;;;;8.53;50.59;100581.00;6330046;20;1819153;-45
2024/01/27 10:54:34;;;;;;;;;7.50;6.00;;;;;8.93;51.22;100581.22;6311091;20;2752382;-46
2024/01/27 10:57:02;;;;;;;;;9.50;7.50;;;;;9.78;51.56;100576.72;6316181;20;2756527;-45
2024/01/27 10:59:32;;;;;;;;;8.00;6.00;;;;;9.41;52.37;100580.97;6275112;20;2735726;-46
2024/01/27 11:02:03;;;;;;;;;5.25;3.00;;;;;8.57;51.59;100577.25;6297822;20;1818166;-45
2024/01/27 11:04:36;;;;;;;;;4.00;4.00;;;;;8.36;52.32;100578.06;6349914;20;1794144;-46
2024/01/27 11:07:06;;;;;;;;;3.25;2.75;;;;;8.17;53.59;100590.38;6298238;20;1817046;-45
2024/01/27 11:09:39;;;;;;;;;7.67;5.83;;;;;8.21;53.94;100586.66;6352861;20;1808159;-45
2024/01/27 11:12:10;;;;;;;;;16.60;14.00;;;;;8.06;55.62;100583.63;6302732;20;2810727;-46
2024/01/27 11:14:38;;;;;;;;;8.00;6.50;;;;;8.01;54.30;100580.25;6279767;20;2749287;-46
2024/01/27 11:17:09;;;;;;;;;11.00;10.00;;;;;8.44;54.64;100594.72;6279902;20;2787878;-46
2024/01/27 11:19:40;;;;;;;;;2.75;2.50;;;;;7.93;55.32;100595.69;6297013;20;1809650;-45
2024/01/27 11:22:16;;;;;;;;;9.00;4.00;;;;;7.97;54.48;100591.97;6316954;20;2752406;-48